Terminal Aerodrome Forecast
Issued by NWS

Home | Current Version | Previous Version | Text Only | Print | Product List | Glossary Off
Versions: 1 2 3 4 5 6 7 8 9 10 11 12 13 14 15 16 17 18 19 20 21

000
FTUS43 KMPX 181120
TAFRWF
TAF
KRWF 181120Z 1812/1912 14005KT P6SM -RA BKN060 OVC100
     FM181600 15012KT P6SM VCSH OVC025
     FM181900 16012KT P6SM SCT008 OVC018
     FM190400 14008KT P6SM BKN008 OVC012=

USA.gov is the U.S. government's official web portal to all federal, state and local government web resources and services.